地図

経路データ

SID SEASON NUMBER BASIN SUBBASIN NAME ISO_TIME NATURE LAT LON WMO_WIND WMO_PRES WMO_AGENCY TRACK_TYPE DIST2LAND LANDFALL IFLAG USA_AGENCY USA_ATCF_ID USA_LAT USA_LON USA_RECORD USA_STATUS USA_WIND USA_PRES USA_SSHS USA_R34_NE USA_R34_SE USA_R34_SW USA_R34_NW USA_R50_NE USA_R50_SE USA_R50_SW USA_R50_NW USA_R64_NE USA_R64_SE USA_R64_SW USA_R64_NW USA_POCI USA_ROCI USA_RMW USA_EYE TOKYO_LAT TOKYO_LON TOKYO_GRADE TOKYO_WIND TOKYO_PRES TOKYO_R50_DIR TOKYO_R50_LONG TOKYO_R50_SHORT TOKYO_R30_DIR TOKYO_R30_LONG TOKYO_R30_SHORT TOKYO_LAND CMA_LAT CMA_LON CMA_CAT CMA_WIND CMA_PRES HKO_LAT HKO_LON HKO_CAT HKO_WIND HKO_PRES NEWDELHI_LAT NEWDELHI_LON NEWDELHI_GRADE NEWDELHI_WIND NEWDELHI_PRES NEWDELHI_CI NEWDELHI_DP NEWDELHI_POCI REUNION_LAT REUNION_LON REUNION_TYPE REUNION_WIND REUNION_PRES REUNION_TNUM REUNION_CI REUNION_RMW REUNION_R34_NE REUNION_R34_SE REUNION_R34_SW REUNION_R34_NW REUNION_R50_NE REUNION_R50_SE REUNION_R50_SW REUNION_R50_NW REUNION_R64_NE REUNION_R64_SE REUNION_R64_SW REUNION_R64_NW BOM_LAT BOM_LON BOM_TYPE BOM_WIND BOM_PRES BOM_TNUM BOM_CI BOM_RMW BOM_R34_NE BOM_R34_SE BOM_R34_SW BOM_R34_NW BOM_R50_NE BOM_R50_SE BOM_R50_SW BOM_R50_NW BOM_R64_NE BOM_R64_SE BOM_R64_SW BOM_R64_NW BOM_ROCI BOM_POCI BOM_EYE BOM_POS_METHOD BOM_PRES_METHOD NADI_LAT NADI_LON NADI_CAT NADI_WIND NADI_PRES WELLINGTON_LAT WELLINGTON_LON WELLINGTON_WIND WELLINGTON_PRES DS824_LAT DS824_LON DS824_STAGE DS824_WIND DS824_PRES TD9636_LAT TD9636_LON TD9636_STAGE TD9636_WIND TD9636_PRES TD9635_LAT TD9635_LON TD9635_WIND TD9635_PRES TD9635_ROCI NEUMANN_LAT NEUMANN_LON NEUMANN_CLASS NEUMANN_WIND NEUMANN_PRES MLC_LAT MLC_LON MLC_CLASS MLC_WIND MLC_PRES USA_GUST BOM_GUST BOM_GUST_PER REUNION_GUST REUNION_GUST_PER USA_SEAHGT USA_SEARAD_NE USA_SEARAD_SE USA_SEARAD_SW USA_SEARAD_NW STORM_SPEED STORM_DIR
1970210N34285 1970 74 NA NA NOT_NAMED 1970-07-28 18:00:00 TS 34.2000 -74.8000 25 hurdat_atl main 157 157 O_____________ hurdat_atl AL031970 34.2000 -74.8000 TD 25 -1 4 91
1970210N34285 1970 74 NA NA NOT_NAMED 1970-07-28 21:00:00 TS 34.1976 -74.5474 main 182 182 P_____________ AL031970 34.1976 -74.5474 TD 25 -1 5 90
1970210N34285 1970 74 NA NA NOT_NAMED 1970-07-29 00:00:00 TS 34.2000 -74.2000 25 hurdat_atl main 207 207 O_____________ hurdat_atl AL031970 34.2000 -74.2000 TD 25 -1 7 89
1970210N34285 1970 74 NA NA NOT_NAMED 1970-07-29 03:00:00 TS 34.2071 -73.6827 main 239 239 P_____________ AL031970 34.2071 -73.6827 TD 25 -1 10 90
1970210N34285 1970 74 NA NA NOT_NAMED 1970-07-29 06:00:00 TS 34.2000 -73.0000 25 hurdat_atl main 288 288 O_____________ hurdat_atl AL031970 34.2000 -73.0000 TD 25 -1 12 92
1970210N34285 1970 74 NA NA NOT_NAMED 1970-07-29 09:00:00 TS 34.1644 -72.2176 main 348 348 P_____________ AL031970 34.1644 -72.2176 TD 27 -1 14 94
1970210N34285 1970 74 NA NA NOT_NAMED 1970-07-29 12:00:00 TS 34.1000 -71.3000 30 1013 hurdat_atl main 426 426 O_____________ hurdat_atl AL031970 34.1000 -71.3000 TD 30 1013 -1 16 95
1970210N34285 1970 74 NA NA NOT_NAMED 1970-07-29 15:00:00 TS 34.0221 -70.2879 main 513 513 P_____________ AL031970 34.0221 -70.2879 TD 30 -1 17 97
1970210N34285 1970 74 NA NA NOT_NAMED 1970-07-29 18:00:00 TS 33.9000 -69.2000 30 hurdat_atl main 611 611 O_____________ hurdat_atl AL031970 33.9000 -69.2000 TD 30 -1 18 99
1970210N34285 1970 74 NA NA NOT_NAMED 1970-07-29 21:00:00 TS 33.7371 -68.0931 main 713 713 P_____________ AL031970 33.7371 -68.0931 TD 30 -1 19 102
1970210N34285 1970 74 NA NA NOT_NAMED 1970-07-30 00:00:00 TS 33.5000 -67.0000 30 hurdat_atl main 816 816 O_____________ hurdat_atl AL031970 33.5000 -67.0000 TD 30 -1 19 108
1970210N34285 1970 74 NA NA NOT_NAMED 1970-07-30 03:00:00 TS 33.1648 -65.9395 main 923 923 P_____________ AL031970 33.1648 -65.9395 TD 30 -1 18 113
1970210N34285 1970 74 NA NA NOT_NAMED 1970-07-30 06:00:00 TS 32.8000 -65.0000 30 hurdat_atl main 1018 1018 O_____________ hurdat_atl AL031970 32.8000 -65.0000 TD 30 -1 16 117
1970210N34285 1970 74 NA NA NOT_NAMED 1970-07-30 09:00:00 TS 32.4464 -64.2477 main 1104 1104 P_____________ AL031970 32.4464 -64.2477 TD 30 -1 13 117
1970210N34285 1970 74 NA NA NOT_NAMED 1970-07-30 12:00:00 TS 32.2000 -63.6000 30 hurdat_atl main 1165 1165 O_____________ hurdat_atl AL031970 32.2000 -63.6000 TD 30 -1 12 106
1970210N34285 1970 74 NA NA NOT_NAMED 1970-07-30 15:00:00 TS 32.1247 -62.9354 main 1229 1229 P_____________ AL031970 32.1247 -62.9354 TD 30 -1 11 90
1970210N34285 1970 74 NA NA NOT_NAMED 1970-07-30 18:00:00 TS 32.2000 -62.3000 30 1009 hurdat_atl main 1257 1257 O_____________ hurdat_atl AL031970 32.2000 -62.3000 TD 30 1009 -1 11 77
1970210N34285 1970 74 NA NA NOT_NAMED 1970-07-30 21:00:00 TS 32.3698 -61.6779 main 1268 1265 P_____________ AL031970 32.3698 -61.6779 TD 30 1009 -1 11 68
1970210N34285 1970 74 NA NA NOT_NAMED 1970-07-31 00:00:00 TS 32.6000 -61.1000 30 1010 hurdat_atl main 1267 1259 O_____________ hurdat_atl AL031970 32.6000 -61.1000 TD 30 1010 -1 10 67
1970210N34285 1970 74 NA NA NOT_NAMED 1970-07-31 03:00:00 TS 32.7773 -60.5620 main 1259 1249 P_____________ AL031970 32.7773 -60.5620 TD 30 -1 9 65
1970210N34285 1970 74 NA NA NOT_NAMED 1970-07-31 06:00:00 TS 33.0000 -60.1000 30 hurdat_atl main 1253 1234 O_____________ hurdat_atl AL031970 33.0000 -60.1000 TD 30 -1 9 55
1970210N34285 1970 74 NA NA NOT_NAMED 1970-07-31 09:00:00 TS 33.2823 -59.7121 main 1234 1204 P_____________ AL031970 33.2823 -59.7121 TD 30 -1 9 40
1970210N34285 1970 74 NA NA NOT_NAMED 1970-07-31 12:00:00 TS 33.7000 -59.4000 30 hurdat_atl main 1204 1154 O_____________ hurdat_atl AL031970 33.7000 -59.4000 TD 30 -1 11 26
1970210N34285 1970 74 NA NA NOT_NAMED 1970-07-31 15:00:00 TS 34.2900 -59.1200 main 1154 1093 P_____________ AL031970 34.2900 -59.1200 TD 30 -1 14 18
1970210N34285 1970 74 NA NA NOT_NAMED 1970-07-31 18:00:00 TS 35.0000 -58.9000 30 hurdat_atl main 1093 1034 O_____________ hurdat_atl AL031970 35.0000 -58.9000 TD 30 -1 15 13
1970210N34285 1970 74 NA NA NOT_NAMED 1970-07-31 21:00:00 TS 35.7349 -58.7271 main 1034 963 P_____________ AL031970 35.7349 -58.7271 TD 30 -1 15 9
1970210N34285 1970 74 NA NA NOT_NAMED 1970-08-01 00:00:00 TS 36.5000 -58.6000 30 hurdat_atl main 963 905 O_____________ hurdat_atl AL031970 36.5000 -58.6000 TD 30 -1 15 7
1970210N34285 1970 74 NA NA NOT_NAMED 1970-08-01 03:00:00 TS 37.2500 -58.4921 main 905 829 P_____________ AL031970 37.2500 -58.4921 TD 30 -1 15 6
1970210N34285 1970 74 NA NA NOT_NAMED 1970-08-01 06:00:00 TS 38.0000 -58.4000 30 1008 hurdat_atl main 829 758 O_____________ hurdat_atl AL031970 38.0000 -58.4000 TD 30 1008 -1 15 6
1970210N34285 1970 74 NA NA NOT_NAMED 1970-08-01 09:00:00 TS 38.7125 -58.2996 main 758 676 P_____________ AL031970 38.7125 -58.2996 TD 30 1009 -1 15 6
1970210N34285 1970 74 NA NA NOT_NAMED 1970-08-01 12:00:00 TS 39.5000 -58.2000 30 1010 hurdat_atl main 676 586 O_____________ hurdat_atl AL031970 39.5000 -58.2000 TD 30 1010 -1 17 5
1970210N34285 1970 74 NA NA NOT_NAMED 1970-08-01 15:00:00 TS 40.4500 -58.1007 main 576 490 P_____________ AL031970 40.4500 -58.1007 TD 30 1010 -1 20 4
1970210N34285 1970 74 NA NA NOT_NAMED 1970-08-01 18:00:00 TS 41.5000 -58.0000 30 1010 hurdat_atl main 481 O_____________ hurdat_atl AL031970 41.5000 -58.0000 TD 30 1010 -1 21 4

IBTrACS Databaseについて

本データベースは、米国NOAAが公開する1842年以降の世界の熱帯低気圧のベストトラックデータアーカイブInternational Best Track Archive for Climate Stewardship (IBTrACS)を、ウェブで閲覧しやすい形式に変換したものです。

最終更新日:2022-11-16